sensor_id;sensor_type;location;lat;lon;timestamp;P1;durP1;ratioP1;P2;durP2;ratioP2
82773;SDS011;72508;45.118;20.728;2023-10-19T00:07:18;4.60;;;2.38;;
82773;SDS011;72508;45.118;20.728;2023-10-19T00:17:19;7.88;;;4.32;;
82773;SDS011;72508;45.118;20.728;2023-10-19T00:27:22;7.30;;;4.45;;
82773;SDS011;72508;45.118;20.728;2023-10-19T00:37:25;6.40;;;3.30;;
82773;SDS011;72508;45.118;20.728;2023-10-19T00:47:30;7.18;;;3.17;;
82773;SDS011;72508;45.118;20.728;2023-10-19T00:57:41;5.47;;;2.83;;
82773;SDS011;72508;45.118;20.728;2023-10-19T01:07:50;5.50;;;3.10;;
82773;SDS011;72508;45.118;20.728;2023-10-19T01:17:58;7.13;;;3.53;;
82773;SDS011;72508;45.118;20.728;2023-10-19T01:28:02;5.90;;;3.45;;
82773;SDS011;72508;45.118;20.728;2023-10-19T01:38:11;5.75;;;2.92;;
82773;SDS011;72508;45.118;20.728;2023-10-19T01:48:14;7.07;;;4.45;;
82773;SDS011;72508;45.118;20.728;2023-10-19T01:58:17;6.70;;;3.10;;
82773;SDS011;72508;45.118;20.728;2023-10-19T02:08:19;6.63;;;3.60;;
82773;SDS011;72508;45.118;20.728;2023-10-19T02:18:26;8.07;;;3.65;;
82773;SDS011;72508;45.118;20.728;2023-10-19T02:28:29;5.57;;;3.13;;
82773;SDS011;72508;45.118;20.728;2023-10-19T02:38:33;7.65;;;3.47;;
82773;SDS011;72508;45.118;20.728;2023-10-19T02:48:36;5.63;;;4.20;;
82773;SDS011;72508;45.118;20.728;2023-10-19T02:58:40;8.00;;;4.03;;
82773;SDS011;72508;45.118;20.728;2023-10-19T03:08:44;10.25;;;4.75;;
82773;SDS011;72508;45.118;20.728;2023-10-19T03:18:47;5.47;;;2.70;;
82773;SDS011;72508;45.118;20.728;2023-10-19T03:28:50;8.10;;;3.95;;
82773;SDS011;72508;45.118;20.728;2023-10-19T03:38:58;6.53;;;2.85;;
82773;SDS011;72508;45.118;20.728;2023-10-19T03:49:14;6.38;;;3.33;;
82773;SDS011;72508;45.118;20.728;2023-10-19T03:59:17;5.65;;;2.78;;
82773;SDS011;72508;45.118;20.728;2023-10-19T04:09:19;10.48;;;4.20;;
82773;SDS011;72508;45.118;20.728;2023-10-19T04:19:21;8.18;;;3.35;;
82773;SDS011;72508;45.118;20.728;2023-10-19T04:29:22;6.38;;;3.50;;
82773;SDS011;72508;45.118;20.728;2023-10-19T04:39:28;7.70;;;3.78;;
82773;SDS011;72508;45.118;20.728;2023-10-19T04:49:31;13.32;;;4.20;;
82773;SDS011;72508;45.118;20.728;2023-10-19T04:59:33;8.07;;;3.88;;
82773;SDS011;72508;45.118;20.728;2023-10-19T05:09:37;9.35;;;4.65;;
82773;SDS011;72508;45.118;20.728;2023-10-19T05:19:42;7.72;;;4.40;;
82773;SDS011;72508;45.118;20.728;2023-10-19T05:29:44;6.75;;;3.17;;
82773;SDS011;72508;45.118;20.728;2023-10-19T05:39:54;5.53;;;2.67;;
82773;SDS011;72508;45.118;20.728;2023-10-19T05:50:00;6.38;;;3.33;;
82773;SDS011;72508;45.118;20.728;2023-10-19T06:00:18;4.82;;;2.83;;
82773;SDS011;72508;45.118;20.728;2023-10-19T06:10:40;4.63;;;2.78;;
82773;SDS011;72508;45.118;20.728;2023-10-19T06:20:44;6.07;;;4.50;;
82773;SDS011;72508;45.118;20.728;2023-10-19T06:30:46;5.10;;;3.40;;
82773;SDS011;72508;45.118;20.728;2023-10-19T06:40:49;11.70;;;5.03;;
82773;SDS011;72508;45.118;20.728;2023-10-19T06:50:50;7.28;;;3.63;;
82773;SDS011;72508;45.118;20.728;2023-10-19T07:00:52;7.43;;;2.97;;
82773;SDS011;72508;45.118;20.728;2023-10-19T07:10:57;4.93;;;3.10;;
82773;SDS011;72508;45.118;20.728;2023-10-19T07:20:59;5.72;;;3.30;;
82773;SDS011;72508;45.118;20.728;2023-10-19T07:31:05;8.25;;;4.30;;
82773;SDS011;72508;45.118;20.728;2023-10-19T07:41:13;8.80;;;4.05;;
82773;SDS011;72508;45.118;20.728;2023-10-19T07:51:15;6.15;;;3.88;;
82773;SDS011;72508;45.118;20.728;2023-10-19T08:01:18;7.40;;;5.10;;
82773;SDS011;72508;45.118;20.728;2023-10-19T08:11:19;8.07;;;3.38;;
82773;SDS011;72508;45.118;20.728;2023-10-19T08:21:22;7.00;;;3.85;;
82773;SDS011;72508;45.118;20.728;2023-10-19T08:31:24;7.90;;;4.13;;
82773;SDS011;72508;45.118;20.728;2023-10-19T08:41:26;6.45;;;3.47;;
82773;SDS011;72508;45.118;20.728;2023-10-19T08:51:27;5.07;;;2.95;;
82773;SDS011;72508;45.118;20.728;2023-10-19T09:01:30;7.13;;;2.83;;
82773;SDS011;72508;45.118;20.728;2023-10-19T09:11:32;4.88;;;2.85;;
82773;SDS011;72508;45.118;20.728;2023-10-19T09:21:34;7.28;;;4.03;;
82773;SDS011;72508;45.118;20.728;2023-10-19T09:31:36;5.20;;;3.00;;
82773;SDS011;72508;45.118;20.728;2023-10-19T09:41:37;10.32;;;3.60;;
82773;SDS011;72508;45.118;20.728;2023-10-19T09:51:39;5.22;;;3.42;;
82773;SDS011;72508;45.118;20.728;2023-10-19T10:02:17;3.67;;;2.28;;
82773;SDS011;72508;45.118;20.728;2023-10-19T10:12:20;5.93;;;2.63;;
82773;SDS011;72508;45.118;20.728;2023-10-19T10:22:22;4.28;;;2.72;;
82773;SDS011;72508;45.118;20.728;2023-10-19T10:32:47;4.15;;;3.58;;
82773;SDS011;72508;45.118;20.728;2023-10-19T10:42:49;3.97;;;2.60;;
82773;SDS011;72508;45.118;20.728;2023-10-19T10:53:05;6.68;;;3.97;;
82773;SDS011;72508;45.118;20.728;2023-10-19T11:03:07;5.80;;;3.95;;
82773;SDS011;72508;45.118;20.728;2023-10-19T11:13:10;2.95;;;1.77;;
82773;SDS011;72508;45.118;20.728;2023-10-19T11:23:12;4.28;;;2.72;;
82773;SDS011;72508;45.118;20.728;2023-10-19T11:33:14;6.13;;;2.58;;
82773;SDS011;72508;45.118;20.728;2023-10-19T11:43:19;5.03;;;3.90;;
82773;SDS011;72508;45.118;20.728;2023-10-19T11:53:20;5.10;;;3.85;;
82773;SDS011;72508;45.118;20.728;2023-10-19T12:03:22;7.78;;;3.00;;
82773;SDS011;72508;45.118;20.728;2023-10-19T12:13:24;6.10;;;3.75;;
82773;SDS011;72508;45.118;20.728;2023-10-19T12:23:25;6.82;;;3.95;;
82773;SDS011;72508;45.118;20.728;2023-10-19T12:33:27;5.60;;;2.83;;
82773;SDS011;72508;45.118;20.728;2023-10-19T12:43:29;5.03;;;2.78;;
82773;SDS011;72508;45.118;20.728;2023-10-19T12:53:31;3.90;;;3.50;;
82773;SDS011;72508;45.118;20.728;2023-10-19T13:03:33;3.35;;;2.47;;
82773;SDS011;72508;45.118;20.728;2023-10-19T13:13:37;5.50;;;2.42;;
82773;SDS011;72508;45.118;20.728;2023-10-19T13:23:43;5.78;;;3.35;;
82773;SDS011;72508;45.118;20.728;2023-10-19T13:33:45;4.05;;;2.00;;
82773;SDS011;72508;45.118;20.728;2023-10-19T13:43:47;10.60;;;4.07;;
82773;SDS011;72508;45.118;20.728;2023-10-19T13:53:49;8.98;;;4.60;;
82773;SDS011;72508;45.118;20.728;2023-10-19T14:03:51;10.25;;;6.78;;
82773;SDS011;72508;45.118;20.728;2023-10-19T14:13:55;9.43;;;5.70;;
82773;SDS011;72508;45.118;20.728;2023-10-19T14:23:57;6.22;;;4.30;;
82773;SDS011;72508;45.118;20.728;2023-10-19T14:34:02;6.38;;;3.28;;
82773;SDS011;72508;45.118;20.728;2023-10-19T14:54:11;7.03;;;3.63;;
82773;SDS011;72508;45.118;20.728;2023-10-19T15:04:12;10.20;;;6.45;;
82773;SDS011;72508;45.118;20.728;2023-10-19T15:14:14;8.32;;;4.88;;
82773;SDS011;72508;45.118;20.728;2023-10-19T15:24:17;6.93;;;5.18;;
82773;SDS011;72508;45.118;20.728;2023-10-19T15:34:19;13.68;;;6.35;;
82773;SDS011;72508;45.118;20.728;2023-10-19T15:44:21;9.55;;;6.10;;
82773;SDS011;72508;45.118;20.728;2023-10-19T15:54:22;12.23;;;6.22;;
82773;SDS011;72508;45.118;20.728;2023-10-19T16:04:24;22.63;;;11.55;;
82773;SDS011;72508;45.118;20.728;2023-10-19T16:14:26;13.38;;;8.10;;
82773;SDS011;72508;45.118;20.728;2023-10-19T16:24:27;19.35;;;11.13;;
82773;SDS011;72508;45.118;20.728;2023-10-19T16:34:30;12.38;;;7.43;;
82773;SDS011;72508;45.118;20.728;2023-10-19T16:44:31;12.20;;;6.05;;
82773;SDS011;72508;45.118;20.728;2023-10-19T16:54:33;10.05;;;5.90;;
82773;SDS011;72508;45.118;20.728;2023-10-19T17:04:34;24.95;;;10.73;;
82773;SDS011;72508;45.118;20.728;2023-10-19T17:14:36;13.95;;;8.30;;
82773;SDS011;72508;45.118;20.728;2023-10-19T17:24:38;16.33;;;7.13;;
82773;SDS011;72508;45.118;20.728;2023-10-19T17:34:40;7.97;;;5.68;;
82773;SDS011;72508;45.118;20.728;2023-10-19T17:44:41;11.73;;;7.65;;
82773;SDS011;72508;45.118;20.728;2023-10-19T17:54:43;12.45;;;5.97;;
82773;SDS011;72508;45.118;20.728;2023-10-19T18:04:49;10.73;;;6.03;;
82773;SDS011;72508;45.118;20.728;2023-10-19T18:14:54;11.25;;;5.82;;
82773;SDS011;72508;45.118;20.728;2023-10-19T18:24:55;22.88;;;8.43;;
82773;SDS011;72508;45.118;20.728;2023-10-19T18:34:58;10.25;;;5.45;;
82773;SDS011;72508;45.118;20.728;2023-10-19T18:44:59;14.73;;;6.28;;
82773;SDS011;72508;45.118;20.728;2023-10-19T18:55:02;8.35;;;5.80;;
82773;SDS011;72508;45.118;20.728;2023-10-19T19:05:04;8.05;;;4.32;;
82773;SDS011;72508;45.118;20.728;2023-10-19T19:15:06;8.13;;;5.32;;
82773;SDS011;72508;45.118;20.728;2023-10-19T19:25:08;10.95;;;5.72;;
82773;SDS011;72508;45.118;20.728;2023-10-19T19:35:09;10.40;;;6.72;;
82773;SDS011;72508;45.118;20.728;2023-10-19T19:45:13;11.70;;;6.45;;
82773;SDS011;72508;45.118;20.728;2023-10-19T19:55:15;10.05;;;5.63;;
82773;SDS011;72508;45.118;20.728;2023-10-19T20:05:17;12.35;;;7.47;;
82773;SDS011;72508;45.118;20.728;2023-10-19T20:15:19;8.82;;;5.43;;
82773;SDS011;72508;45.118;20.728;2023-10-19T20:25:21;11.77;;;6.28;;
82773;SDS011;72508;45.118;20.728;2023-10-19T20:35:22;20.00;;;7.65;;
82773;SDS011;72508;45.118;20.728;2023-10-19T20:45:25;12.13;;;5.68;;
82773;SDS011;72508;45.118;20.728;2023-10-19T20:55:27;10.38;;;6.63;;
82773;SDS011;72508;45.118;20.728;2023-10-19T21:05:28;13.45;;;5.80;;
82773;SDS011;72508;45.118;20.728;2023-10-19T21:15:31;15.82;;;7.53;;
82773;SDS011;72508;45.118;20.728;2023-10-19T21:25:33;13.40;;;4.60;;
82773;SDS011;72508;45.118;20.728;2023-10-19T21:35:35;12.13;;;4.72;;
82773;SDS011;72508;45.118;20.728;2023-10-19T21:45:40;8.40;;;4.60;;
82773;SDS011;72508;45.118;20.728;2023-10-19T21:55:44;7.20;;;4.38;;
82773;SDS011;72508;45.118;20.728;2023-10-19T22:05:46;8.65;;;5.43;;
82773;SDS011;72508;45.118;20.728;2023-10-19T22:15:48;7.45;;;4.38;;
82773;SDS011;72508;45.118;20.728;2023-10-19T22:25:49;7.57;;;3.53;;
82773;SDS011;72508;45.118;20.728;2023-10-19T22:35:51;5.32;;;2.70;;
82773;SDS011;72508;45.118;20.728;2023-10-19T22:45:53;7.32;;;3.88;;
82773;SDS011;72508;45.118;20.728;2023-10-19T22:55:54;10.93;;;4.57;;
82773;SDS011;72508;45.118;20.728;2023-10-19T23:05:56;7.28;;;4.00;;
82773;SDS011;72508;45.118;20.728;2023-10-19T23:15:57;8.05;;;3.65;;
82773;SDS011;72508;45.118;20.728;2023-10-19T23:26:02;12.25;;;4.18;;
82773;SDS011;72508;45.118;20.728;2023-10-19T23:36:08;6.97;;;4.10;;
82773;SDS011;72508;45.118;20.728;2023-10-19T23:46:10;10.27;;;5.38;;
82773;SDS011;72508;45.118;20.728;2023-10-19T23:56:11;8.45;;;3.63;;
